sensor_id;sensor_type;location;lat;lon;timestamp;temperature;humidity
21445;DHT22;10883;51.946;20.140;2023-06-19T00:01:19;11.10;99.90
21445;DHT22;10883;51.946;20.140;2023-06-19T00:03:45;11.10;99.90
21445;DHT22;10883;51.946;20.140;2023-06-19T00:06:11;11.10;99.90
21445;DHT22;10883;51.946;20.140;2023-06-19T00:08:38;11.00;99.90
21445;DHT22;10883;51.946;20.140;2023-06-19T00:11:07;11.00;99.90
21445;DHT22;10883;51.946;20.140;2023-06-19T00:13:33;11.00;99.90
21445;DHT22;10883;51.946;20.140;2023-06-19T00:16:00;11.00;99.90
21445;DHT22;10883;51.946;20.140;2023-06-19T00:18:26;11.00;99.90
21445;DHT22;10883;51.946;20.140;2023-06-19T00:20:52;11.00;99.90
21445;DHT22;10883;51.946;20.140;2023-06-19T00:23:22;11.00;99.90
21445;DHT22;10883;51.946;20.140;2023-06-19T00:25:47;11.00;99.90
21445;DHT22;10883;51.946;20.140;2023-06-19T00:28:13;11.00;99.90
21445;DHT22;10883;51.946;20.140;2023-06-19T00:30:40;10.90;99.90
21445;DHT22;10883;51.946;20.140;2023-06-19T00:33:07;10.90;99.90
21445;DHT22;10883;51.946;20.140;2023-06-19T00:35:33;10.90;99.90
21445;DHT22;10883;51.946;20.140;2023-06-19T00:37:59;10.90;99.90
21445;DHT22;10883;51.946;20.140;2023-06-19T00:40:29;10.90;99.90
21445;DHT22;10883;51.946;20.140;2023-06-19T00:42:56;10.80;99.90
21445;DHT22;10883;51.946;20.140;2023-06-19T00:45:22;10.80;99.90
21445;DHT22;10883;51.946;20.140;2023-06-19T00:47:50;10.70;99.90
21445;DHT22;10883;51.946;20.140;2023-06-19T00:50:16;10.70;99.90
21445;DHT22;10883;51.946;20.140;2023-06-19T00:52:43;10.80;99.90
21445;DHT22;10883;51.946;20.140;2023-06-19T00:55:10;10.70;99.90
21445;DHT22;10883;51.946;20.140;2023-06-19T00:57:37;10.80;99.90
21445;DHT22;10883;51.946;20.140;2023-06-19T01:00:03;10.70;99.90
21445;DHT22;10883;51.946;20.140;2023-06-19T01:02:34;10.70;99.90
21445;DHT22;10883;51.946;20.140;2023-06-19T01:05:00;10.60;99.90
21445;DHT22;10883;51.946;20.140;2023-06-19T01:10:01;10.60;99.90
21445;DHT22;10883;51.946;20.140;2023-06-19T01:12:40;10.50;99.90
21445;DHT22;10883;51.946;20.140;2023-06-19T01:15:10;10.50;99.90
21445;DHT22;10883;51.946;20.140;2023-06-19T01:17:37;10.50;99.90
21445;DHT22;10883;51.946;20.140;2023-06-19T01:20:04;10.50;99.90
21445;DHT22;10883;51.946;20.140;2023-06-19T01:22:36;10.50;99.90
21445;DHT22;10883;51.946;20.140;2023-06-19T01:25:02;10.50;99.90
21445;DHT22;10883;51.946;20.140;2023-06-19T01:27:30;10.50;99.90
21445;DHT22;10883;51.946;20.140;2023-06-19T01:29:57;10.40;99.90
21445;DHT22;10883;51.946;20.140;2023-06-19T01:32:35;10.40;99.90
21445;DHT22;10883;51.946;20.140;2023-06-19T01:35:04;10.40;99.90
21445;DHT22;10883;51.946;20.140;2023-06-19T01:37:33;10.30;99.90
21445;DHT22;10883;51.946;20.140;2023-06-19T01:40:00;10.30;99.90
21445;DHT22;10883;51.946;20.140;2023-06-19T01:42:27;10.30;99.90
21445;DHT22;10883;51.946;20.140;2023-06-19T01:44:53;10.30;99.90
21445;DHT22;10883;51.946;20.140;2023-06-19T01:47:19;10.40;99.90
21445;DHT22;10883;51.946;20.140;2023-06-19T01:49:47;10.40;99.90
21445;DHT22;10883;51.946;20.140;2023-06-19T01:52:13;10.40;99.90
21445;DHT22;10883;51.946;20.140;2023-06-19T01:54:39;10.30;99.90
21445;DHT22;10883;51.946;20.140;2023-06-19T01:57:05;10.30;99.90
21445;DHT22;10883;51.946;20.140;2023-06-19T01:59:30;10.30;99.90
21445;DHT22;10883;51.946;20.140;2023-06-19T02:01:56;10.30;99.90
21445;DHT22;10883;51.946;20.140;2023-06-19T02:04:22;10.20;99.90
21445;DHT22;10883;51.946;20.140;2023-06-19T02:06:48;10.20;99.90
21445;DHT22;10883;51.946;20.140;2023-06-19T02:09:14;10.10;99.90
21445;DHT22;10883;51.946;20.140;2023-06-19T02:11:39;10.10;99.90
21445;DHT22;10883;51.946;20.140;2023-06-19T02:14:05;10.10;99.90
21445;DHT22;10883;51.946;20.140;2023-06-19T02:16:31;10.20;99.90
21445;DHT22;10883;51.946;20.140;2023-06-19T02:18:57;10.10;99.90
21445;DHT22;10883;51.946;20.140;2023-06-19T02:21:23;10.10;99.90
21445;DHT22;10883;51.946;20.140;2023-06-19T02:23:49;10.10;99.90
21445;DHT22;10883;51.946;20.140;2023-06-19T02:26:15;10.20;99.90
21445;DHT22;10883;51.946;20.140;2023-06-19T02:28:41;10.20;99.90
21445;DHT22;10883;51.946;20.140;2023-06-19T02:31:07;10.20;99.90
21445;DHT22;10883;51.946;20.140;2023-06-19T02:33:32;10.20;99.90
21445;DHT22;10883;51.946;20.140;2023-06-19T02:35:58;10.20;99.90
21445;DHT22;10883;51.946;20.140;2023-06-19T02:38:27;10.30;99.90
21445;DHT22;10883;51.946;20.140;2023-06-19T02:40:55;10.30;99.90
21445;DHT22;10883;51.946;20.140;2023-06-19T02:43:23;10.30;99.90
21445;DHT22;10883;51.946;20.140;2023-06-19T02:45:49;10.30;99.90
21445;DHT22;10883;51.946;20.140;2023-06-19T02:48:14;10.30;99.90
21445;DHT22;10883;51.946;20.140;2023-06-19T02:50:40;10.30;99.90
21445;DHT22;10883;51.946;20.140;2023-06-19T02:53:06;10.40;99.90
21445;DHT22;10883;51.946;20.140;2023-06-19T02:55:32;10.40;99.90
21445;DHT22;10883;51.946;20.140;2023-06-19T02:57:57;10.40;99.90
21445;DHT22;10883;51.946;20.140;2023-06-19T03:00:23;10.40;99.90
21445;DHT22;10883;51.946;20.140;2023-06-19T03:02:49;10.50;99.90
21445;DHT22;10883;51.946;20.140;2023-06-19T03:05:16;10.60;99.90
21445;DHT22;10883;51.946;20.140;2023-06-19T03:07:42;10.60;99.90
21445;DHT22;10883;51.946;20.140;2023-06-19T03:10:08;10.70;99.90
21445;DHT22;10883;51.946;20.140;2023-06-19T03:12:34;10.70;99.90
21445;DHT22;10883;51.946;20.140;2023-06-19T03:15:00;10.80;99.90
21445;DHT22;10883;51.946;20.140;2023-06-19T03:17:25;10.90;99.90
21445;DHT22;10883;51.946;20.140;2023-06-19T03:19:51;11.00;99.90
21445;DHT22;10883;51.946;20.140;2023-06-19T03:22:19;11.10;99.90
21445;DHT22;10883;51.946;20.140;2023-06-19T03:24:44;11.20;99.90
21445;DHT22;10883;51.946;20.140;2023-06-19T03:27:10;11.30;99.90
21445;DHT22;10883;51.946;20.140;2023-06-19T03:29:36;11.50;99.90
21445;DHT22;10883;51.946;20.140;2023-06-19T03:32:02;11.60;99.90
21445;DHT22;10883;51.946;20.140;2023-06-19T03:34:27;11.80;99.90
21445;DHT22;10883;51.946;20.140;2023-06-19T03:36:53;11.90;99.90
21445;DHT22;10883;51.946;20.140;2023-06-19T03:39:19;12.00;99.90
21445;DHT22;10883;51.946;20.140;2023-06-19T03:41:45;12.20;99.90
21445;DHT22;10883;51.946;20.140;2023-06-19T03:44:11;12.40;99.90
21445;DHT22;10883;51.946;20.140;2023-06-19T03:46:36;12.60;99.90
21445;DHT22;10883;51.946;20.140;2023-06-19T03:49:02;12.70;99.90
21445;DHT22;10883;51.946;20.140;2023-06-19T03:51:30;12.80;99.90
21445;DHT22;10883;51.946;20.140;2023-06-19T03:53:56;12.80;99.90
21445;DHT22;10883;51.946;20.140;2023-06-19T03:56:22;12.90;99.90
21445;DHT22;10883;51.946;20.140;2023-06-19T03:58:47;13.00;99.90
21445;DHT22;10883;51.946;20.140;2023-06-19T04:01:13;13.10;99.90
21445;DHT22;10883;51.946;20.140;2023-06-19T04:03:39;13.30;99.90
21445;DHT22;10883;51.946;20.140;2023-06-19T04:06:05;13.40;99.90
21445;DHT22;10883;51.946;20.140;2023-06-19T04:08:30;13.50;99.90
21445;DHT22;10883;51.946;20.140;2023-06-19T04:10:56;13.60;99.90
21445;DHT22;10883;51.946;20.140;2023-06-19T04:13:22;13.70;99.90
21445;DHT22;10883;51.946;20.140;2023-06-19T04:15:48;13.90;99.90
21445;DHT22;10883;51.946;20.140;2023-06-19T04:18:13;14.00;99.90
21445;DHT22;10883;51.946;20.140;2023-06-19T04:20:39;14.10;99.90
21445;DHT22;10883;51.946;20.140;2023-06-19T04:23:05;14.20;99.90
21445;DHT22;10883;51.946;20.140;2023-06-19T04:25:31;14.30;99.90
21445;DHT22;10883;51.946;20.140;2023-06-19T04:27:57;14.40;99.90
21445;DHT22;10883;51.946;20.140;2023-06-19T04:30:22;14.50;99.90
21445;DHT22;10883;51.946;20.140;2023-06-19T04:32:48;14.50;99.90
21445;DHT22;10883;51.946;20.140;2023-06-19T04:35:14;14.70;99.90
21445;DHT22;10883;51.946;20.140;2023-06-19T04:37:40;14.80;99.90
21445;DHT22;10883;51.946;20.140;2023-06-19T04:40:06;14.80;99.90
21445;DHT22;10883;51.946;20.140;2023-06-19T04:42:35;15.00;99.90
21445;DHT22;10883;51.946;20.140;2023-06-19T04:45:00;15.10;99.90
21445;DHT22;10883;51.946;20.140;2023-06-19T04:47:26;15.20;99.90
21445;DHT22;10883;51.946;20.140;2023-06-19T04:49:52;15.30;99.90
21445;DHT22;10883;51.946;20.140;2023-06-19T04:52:17;15.50;99.90
21445;DHT22;10883;51.946;20.140;2023-06-19T04:54:44;15.60;99.90
21445;DHT22;10883;51.946;20.140;2023-06-19T04:57:10;15.70;99.90
21445;DHT22;10883;51.946;20.140;2023-06-19T04:59:36;15.80;99.90
21445;DHT22;10883;51.946;20.140;2023-06-19T05:02:02;15.90;99.90
21445;DHT22;10883;51.946;20.140;2023-06-19T05:04:28;16.00;99.90
21445;DHT22;10883;51.946;20.140;2023-06-19T05:06:58;16.10;99.90
21445;DHT22;10883;51.946;20.140;2023-06-19T05:09:24;16.20;99.90
21445;DHT22;10883;51.946;20.140;2023-06-19T05:11:50;16.40;99.90
21445;DHT22;10883;51.946;20.140;2023-06-19T05:14:16;16.50;99.90
21445;DHT22;10883;51.946;20.140;2023-06-19T05:16:41;16.80;99.90
21445;DHT22;10883;51.946;20.140;2023-06-19T05:19:07;17.00;99.90
21445;DHT22;10883;51.946;20.140;2023-06-19T05:21:33;17.20;99.90
21445;DHT22;10883;51.946;20.140;2023-06-19T05:23:59;17.40;99.90
21445;DHT22;10883;51.946;20.140;2023-06-19T05:26:25;17.60;99.90
21445;DHT22;10883;51.946;20.140;2023-06-19T05:28:51;17.70;99.90
21445;DHT22;10883;51.946;20.140;2023-06-19T05:31:17;17.90;99.90
21445;DHT22;10883;51.946;20.140;2023-06-19T05:33:44;18.10;99.90
21445;DHT22;10883;51.946;20.140;2023-06-19T05:36:10;18.30;99.90
21445;DHT22;10883;51.946;20.140;2023-06-19T05:38:36;18.40;99.90
21445;DHT22;10883;51.946;20.140;2023-06-19T05:41:02;18.60;99.90
21445;DHT22;10883;51.946;20.140;2023-06-19T05:43:28;18.70;99.90
21445;DHT22;10883;51.946;20.140;2023-06-19T05:45:54;18.90;99.90
21445;DHT22;10883;51.946;20.140;2023-06-19T05:48:25;19.00;99.90
21445;DHT22;10883;51.946;20.140;2023-06-19T05:50:51;19.00;99.90
21445;DHT22;10883;51.946;20.140;2023-06-19T05:53:17;19.10;99.90
21445;DHT22;10883;51.946;20.140;2023-06-19T05:55:43;19.30;99.90
21445;DHT22;10883;51.946;20.140;2023-06-19T05:58:09;19.50;99.90
21445;DHT22;10883;51.946;20.140;2023-06-19T06:00:35;19.70;99.90
21445;DHT22;10883;51.946;20.140;2023-06-19T06:03:01;19.80;99.90
21445;DHT22;10883;51.946;20.140;2023-06-19T06:05:28;20.10;99.90
21445;DHT22;10883;51.946;20.140;2023-06-19T06:07:54;20.30;99.90
21445;DHT22;10883;51.946;20.140;2023-06-19T06:10:21;20.40;99.90
21445;DHT22;10883;51.946;20.140;2023-06-19T06:12:48;20.50;99.90
21445;DHT22;10883;51.946;20.140;2023-06-19T06:15:14;20.70;99.90
21445;DHT22;10883;51.946;20.140;2023-06-19T06:17:40;20.80;99.90
21445;DHT22;10883;51.946;20.140;2023-06-19T06:20:06;20.90;99.90
21445;DHT22;10883;51.946;20.140;2023-06-19T06:22:38;20.80;99.90
21445;DHT22;10883;51.946;20.140;2023-06-19T06:25:04;21.00;99.90
21445;DHT22;10883;51.946;20.140;2023-06-19T06:27:30;21.10;99.90
21445;DHT22;10883;51.946;20.140;2023-06-19T06:29:56;21.30;99.90
21445;DHT22;10883;51.946;20.140;2023-06-19T06:32:22;21.40;99.90
21445;DHT22;10883;51.946;20.140;2023-06-19T06:34:47;21.60;99.90
21445;DHT22;10883;51.946;20.140;2023-06-19T06:37:13;21.70;99.90
21445;DHT22;10883;51.946;20.140;2023-06-19T06:39:41;21.80;99.90
21445;DHT22;10883;51.946;20.140;2023-06-19T06:42:07;22.00;99.90
21445;DHT22;10883;51.946;20.140;2023-06-19T06:44:33;22.20;99.90
21445;DHT22;10883;51.946;20.140;2023-06-19T06:46:58;22.20;99.90
21445;DHT22;10883;51.946;20.140;2023-06-19T06:49:24;22.40;99.90
21445;DHT22;10883;51.946;20.140;2023-06-19T06:51:50;22.30;99.90
21445;DHT22;10883;51.946;20.140;2023-06-19T06:54:16;22.40;99.90
21445;DHT22;10883;51.946;20.140;2023-06-19T06:56:41;22.60;99.90
21445;DHT22;10883;51.946;20.140;2023-06-19T06:59:07;22.70;99.90
21445;DHT22;10883;51.946;20.140;2023-06-19T07:01:33;22.90;99.90
21445;DHT22;10883;51.946;20.140;2023-06-19T07:03:59;22.80;99.90
21445;DHT22;10883;51.946;20.140;2023-06-19T07:06:24;22.80;99.90
21445;DHT22;10883;51.946;20.140;2023-06-19T07:08:50;22.90;99.90
21445;DHT22;10883;51.946;20.140;2023-06-19T07:11:16;23.20;99.90
21445;DHT22;10883;51.946;20.140;2023-06-19T07:13:42;23.30;99.90
21445;DHT22;10883;51.946;20.140;2023-06-19T07:16:07;23.40;99.90
21445;DHT22;10883;51.946;20.140;2023-06-19T07:18:33;23.60;99.90
21445;DHT22;10883;51.946;20.140;2023-06-19T07:21:01;23.80;99.90
21445;DHT22;10883;51.946;20.140;2023-06-19T07:23:28;23.70;99.90
21445;DHT22;10883;51.946;20.140;2023-06-19T07:25:53;23.40;99.90
21445;DHT22;10883;51.946;20.140;2023-06-19T07:28:19;22.90;99.90
21445;DHT22;10883;51.946;20.140;2023-06-19T07:30:45;23.00;99.90
21445;DHT22;10883;51.946;20.140;2023-06-19T07:33:13;23.30;99.90
21445;DHT22;10883;51.946;20.140;2023-06-19T07:35:39;23.70;99.90
21445;DHT22;10883;51.946;20.140;2023-06-19T07:38:04;24.10;99.90
21445;DHT22;10883;51.946;20.140;2023-06-19T07:40:30;24.50;99.90
21445;DHT22;10883;51.946;20.140;2023-06-19T07:42:56;24.60;99.90
21445;DHT22;10883;51.946;20.140;2023-06-19T07:45:22;24.40;99.90
21445;DHT22;10883;51.946;20.140;2023-06-19T07:47:55;24.80;99.90
21445;DHT22;10883;51.946;20.140;2023-06-19T07:50:22;25.20;99.90
21445;DHT22;10883;51.946;20.140;2023-06-19T07:52:47;25.50;99.90
21445;DHT22;10883;51.946;20.140;2023-06-19T07:55:13;25.80;99.90
21445;DHT22;10883;51.946;20.140;2023-06-19T07:57:39;26.00;99.90
21445;DHT22;10883;51.946;20.140;2023-06-19T08:00:05;26.00;99.90
21445;DHT22;10883;51.946;20.140;2023-06-19T08:02:41;26.40;99.90
21445;DHT22;10883;51.946;20.140;2023-06-19T08:05:08;26.50;99.90
21445;DHT22;10883;51.946;20.140;2023-06-19T08:07:35;26.70;99.90
21445;DHT22;10883;51.946;20.140;2023-06-19T08:10:01;26.80;99.90
21445;DHT22;10883;51.946;20.140;2023-06-19T08:12:29;26.80;99.90
21445;DHT22;10883;51.946;20.140;2023-06-19T08:14:55;26.80;99.90
21445;DHT22;10883;51.946;20.140;2023-06-19T08:17:21;26.80;99.90
21445;DHT22;10883;51.946;20.140;2023-06-19T08:19:47;27.00;99.90
21445;DHT22;10883;51.946;20.140;2023-06-19T08:22:13;27.40;99.90
21445;DHT22;10883;51.946;20.140;2023-06-19T08:24:39;27.40;99.90
21445;DHT22;10883;51.946;20.140;2023-06-19T08:27:06;27.40;99.90
21445;DHT22;10883;51.946;20.140;2023-06-19T08:29:32;26.70;99.90
21445;DHT22;10883;51.946;20.140;2023-06-19T08:31:58;26.50;99.90
21445;DHT22;10883;51.946;20.140;2023-06-19T08:34:24;26.20;99.90
21445;DHT22;10883;51.946;20.140;2023-06-19T08:36:49;26.30;99.90
21445;DHT22;10883;51.946;20.140;2023-06-19T08:39:15;26.20;99.90
21445;DHT22;10883;51.946;20.140;2023-06-19T08:41:42;25.90;99.90
21445;DHT22;10883;51.946;20.140;2023-06-19T08:44:08;26.20;99.90
21445;DHT22;10883;51.946;20.140;2023-06-19T08:46:35;26.20;99.90
21445;DHT22;10883;51.946;20.140;2023-06-19T08:49:04;26.60;99.90
21445;DHT22;10883;51.946;20.140;2023-06-19T08:51:31;27.10;99.90
21445;DHT22;10883;51.946;20.140;2023-06-19T08:54:03;27.60;99.90
21445;DHT22;10883;51.946;20.140;2023-06-19T08:56:32;28.30;99.90
21445;DHT22;10883;51.946;20.140;2023-06-19T08:59:16;28.30;99.80
21445;DHT22;10883;51.946;20.140;2023-06-19T09:01:50;28.70;98.70
21445;DHT22;10883;51.946;20.140;2023-06-19T09:04:20;29.20;97.30
21445;DHT22;10883;51.946;20.140;2023-06-19T09:06:51;29.60;95.90
21445;DHT22;10883;51.946;20.140;2023-06-19T09:09:19;30.10;95.30
21445;DHT22;10883;51.946;20.140;2023-06-19T09:12:00;30.50;95.20
21445;DHT22;10883;51.946;20.140;2023-06-19T09:17:03;30.40;92.80
21445;DHT22;10883;51.946;20.140;2023-06-19T09:19:30;30.00;91.90
21445;DHT22;10883;51.946;20.140;2023-06-19T09:22:06;30.00;91.80
21445;DHT22;10883;51.946;20.140;2023-06-19T09:24:39;30.20;91.40
21445;DHT22;10883;51.946;20.140;2023-06-19T09:27:10;29.70;91.60
21445;DHT22;10883;51.946;20.140;2023-06-19T09:29:40;30.10;90.50
21445;DHT22;10883;51.946;20.140;2023-06-19T09:32:19;30.40;90.30
21445;DHT22;10883;51.946;20.140;2023-06-19T09:34:45;30.80;89.70
21445;DHT22;10883;51.946;20.140;2023-06-19T09:37:11;31.30;91.00
21445;DHT22;10883;51.946;20.140;2023-06-19T09:39:38;31.30;88.10
21445;DHT22;10883;51.946;20.140;2023-06-19T09:42:07;31.10;91.20
21445;DHT22;10883;51.946;20.140;2023-06-19T09:44:42;30.10;86.20
21445;DHT22;10883;51.946;20.140;2023-06-19T09:49:46;30.20;90.40
21445;DHT22;10883;51.946;20.140;2023-06-19T09:52:13;30.50;91.00
21445;DHT22;10883;51.946;20.140;2023-06-19T09:54:39;30.80;90.90
21445;DHT22;10883;51.946;20.140;2023-06-19T09:57:07;31.20;92.30
21445;DHT22;10883;51.946;20.140;2023-06-19T09:59:33;31.80;90.20
21445;DHT22;10883;51.946;20.140;2023-06-19T10:02:00;32.20;84.80
21445;DHT22;10883;51.946;20.140;2023-06-19T10:04:26;32.40;87.60
21445;DHT22;10883;51.946;20.140;2023-06-19T10:06:51;32.80;82.80
21445;DHT22;10883;51.946;20.140;2023-06-19T10:09:18;33.00;84.10
21445;DHT22;10883;51.946;20.140;2023-06-19T10:11:45;33.00;80.20
21445;DHT22;10883;51.946;20.140;2023-06-19T10:14:11;32.30;83.20
21445;DHT22;10883;51.946;20.140;2023-06-19T10:16:38;31.30;82.20
21445;DHT22;10883;51.946;20.140;2023-06-19T10:19:13;31.10;82.20
21445;DHT22;10883;51.946;20.140;2023-06-19T10:21:50;30.10;83.90
21445;DHT22;10883;51.946;20.140;2023-06-19T10:24:19;30.20;84.90
21445;DHT22;10883;51.946;20.140;2023-06-19T10:27:02;30.60;85.70
21445;DHT22;10883;51.946;20.140;2023-06-19T10:29:40;31.40;79.10
21445;DHT22;10883;51.946;20.140;2023-06-19T10:32:06;32.50;80.20
21445;DHT22;10883;51.946;20.140;2023-06-19T10:34:35;33.20;81.70
21445;DHT22;10883;51.946;20.140;2023-06-19T10:37:02;33.80;76.80
21445;DHT22;10883;51.946;20.140;2023-06-19T10:39:28;33.90;72.50
21445;DHT22;10883;51.946;20.140;2023-06-19T10:41:53;33.80;72.00
21445;DHT22;10883;51.946;20.140;2023-06-19T10:44:23;32.70;74.60
21445;DHT22;10883;51.946;20.140;2023-06-19T10:46:52;31.30;76.90
21445;DHT22;10883;51.946;20.140;2023-06-19T10:49:18;31.10;75.60
21445;DHT22;10883;51.946;20.140;2023-06-19T10:51:44;32.50;78.80
21445;DHT22;10883;51.946;20.140;2023-06-19T10:54:10;34.80;72.90
21445;DHT22;10883;51.946;20.140;2023-06-19T10:56:36;35.60;68.20
21445;DHT22;10883;51.946;20.140;2023-06-19T10:59:04;36.40;66.80
21445;DHT22;10883;51.946;20.140;2023-06-19T11:01:39;38.10;64.30
21445;DHT22;10883;51.946;20.140;2023-06-19T11:04:06;39.80;58.90
21445;DHT22;10883;51.946;20.140;2023-06-19T11:06:33;42.60;58.10
21445;DHT22;10883;51.946;20.140;2023-06-19T11:08:59;40.20;57.20
21445;DHT22;10883;51.946;20.140;2023-06-19T11:11:43;39.50;58.60
21445;DHT22;10883;51.946;20.140;2023-06-19T11:14:10;42.60;55.70
21445;DHT22;10883;51.946;20.140;2023-06-19T11:16:46;42.20;54.50
21445;DHT22;10883;51.946;20.140;2023-06-19T11:19:17;42.60;55.40
21445;DHT22;10883;51.946;20.140;2023-06-19T11:21:49;45.00;52.70
21445;DHT22;10883;51.946;20.140;2023-06-19T11:24:15;46.40;51.20
21445;DHT22;10883;51.946;20.140;2023-06-19T11:26:43;46.50;52.50
21445;DHT22;10883;51.946;20.140;2023-06-19T11:29:20;47.00;50.90
21445;DHT22;10883;51.946;20.140;2023-06-19T11:31:46;47.10;49.90
21445;DHT22;10883;51.946;20.140;2023-06-19T11:34:14;46.30;48.60
21445;DHT22;10883;51.946;20.140;2023-06-19T11:36:41;47.50;49.80
21445;DHT22;10883;51.946;20.140;2023-06-19T11:39:11;47.80;47.50
21445;DHT22;10883;51.946;20.140;2023-06-19T11:41:39;49.80;47.70
21445;DHT22;10883;51.946;20.140;2023-06-19T11:44:07;50.50;45.90
21445;DHT22;10883;51.946;20.140;2023-06-19T11:46:34;50.80;43.80
21445;DHT22;10883;51.946;20.140;2023-06-19T11:49:17;50.30;45.30
21445;DHT22;10883;51.946;20.140;2023-06-19T11:51:46;48.10;45.90
21445;DHT22;10883;51.946;20.140;2023-06-19T11:54:13;45.90;48.60
21445;DHT22;10883;51.946;20.140;2023-06-19T11:56:43;44.60;50.00
21445;DHT22;10883;51.946;20.140;2023-06-19T11:59:09;43.60;50.30
21445;DHT22;10883;51.946;20.140;2023-06-19T12:01:36;43.20;51.50
21445;DHT22;10883;51.946;20.140;2023-06-19T12:04:02;45.00;51.10
21445;DHT22;10883;51.946;20.140;2023-06-19T12:06:28;45.60;50.40
21445;DHT22;10883;51.946;20.140;2023-06-19T12:08:54;46.20;48.40
21445;DHT22;10883;51.946;20.140;2023-06-19T12:11:20;46.90;49.90
21445;DHT22;10883;51.946;20.140;2023-06-19T12:13:48;48.00;45.70
21445;DHT22;10883;51.946;20.140;2023-06-19T12:16:14;48.80;45.10
21445;DHT22;10883;51.946;20.140;2023-06-19T12:18:40;48.60;46.00
21445;DHT22;10883;51.946;20.140;2023-06-19T12:21:06;49.20;46.50
21445;DHT22;10883;51.946;20.140;2023-06-19T12:23:32;48.70;46.40
21445;DHT22;10883;51.946;20.140;2023-06-19T12:25:58;49.20;45.50
21445;DHT22;10883;51.946;20.140;2023-06-19T12:28:24;49.50;45.50
21445;DHT22;10883;51.946;20.140;2023-06-19T12:30:52;49.60;45.80
21445;DHT22;10883;51.946;20.140;2023-06-19T12:33:19;49.40;44.10
21445;DHT22;10883;51.946;20.140;2023-06-19T12:35:46;47.50;46.30
21445;DHT22;10883;51.946;20.140;2023-06-19T12:38:12;44.80;48.10
21445;DHT22;10883;51.946;20.140;2023-06-19T12:40:38;42.40;51.90
21445;DHT22;10883;51.946;20.140;2023-06-19T12:43:04;40.50;52.70
21445;DHT22;10883;51.946;20.140;2023-06-19T12:45:30;39.30;53.10
21445;DHT22;10883;51.946;20.140;2023-06-19T12:47:56;38.10;56.20
21445;DHT22;10883;51.946;20.140;2023-06-19T12:50:22;37.10;58.40
21445;DHT22;10883;51.946;20.140;2023-06-19T12:52:48;37.20;57.00
21445;DHT22;10883;51.946;20.140;2023-06-19T12:55:14;37.00;57.40
21445;DHT22;10883;51.946;20.140;2023-06-19T12:57:40;36.70;58.90
21445;DHT22;10883;51.946;20.140;2023-06-19T13:00:09;36.80;55.80
21445;DHT22;10883;51.946;20.140;2023-06-19T13:02:35;36.30;56.40
21445;DHT22;10883;51.946;20.140;2023-06-19T13:05:02;37.10;57.40
21445;DHT22;10883;51.946;20.140;2023-06-19T13:07:28;36.90;57.40
21445;DHT22;10883;51.946;20.140;2023-06-19T13:09:54;36.20;56.80
21445;DHT22;10883;51.946;20.140;2023-06-19T13:12:22;35.60;61.40
21445;DHT22;10883;51.946;20.140;2023-06-19T13:14:48;34.30;60.30
21445;DHT22;10883;51.946;20.140;2023-06-19T13:17:13;33.70;61.30
21445;DHT22;10883;51.946;20.140;2023-06-19T13:19:40;33.40;61.30
21445;DHT22;10883;51.946;20.140;2023-06-19T13:22:06;33.20;65.00
21445;DHT22;10883;51.946;20.140;2023-06-19T13:24:31;32.90;63.10
21445;DHT22;10883;51.946;20.140;2023-06-19T13:26:57;32.20;65.20
21445;DHT22;10883;51.946;20.140;2023-06-19T13:29:23;32.00;64.20
21445;DHT22;10883;51.946;20.140;2023-06-19T13:31:49;31.60;62.00
21445;DHT22;10883;51.946;20.140;2023-06-19T13:34:15;31.70;67.40
21445;DHT22;10883;51.946;20.140;2023-06-19T13:36:41;32.60;68.50
21445;DHT22;10883;51.946;20.140;2023-06-19T13:39:08;35.10;61.00
21445;DHT22;10883;51.946;20.140;2023-06-19T13:41:34;38.40;55.50
21445;DHT22;10883;51.946;20.140;2023-06-19T13:44:00;40.60;52.10
21445;DHT22;10883;51.946;20.140;2023-06-19T13:46:26;42.40;53.20
21445;DHT22;10883;51.946;20.140;2023-06-19T13:48:52;43.90;49.50
21445;DHT22;10883;51.946;20.140;2023-06-19T13:51:19;44.70;47.50
21445;DHT22;10883;51.946;20.140;2023-06-19T13:53:45;44.60;48.10
21445;DHT22;10883;51.946;20.140;2023-06-19T13:56:12;43.40;47.60
21445;DHT22;10883;51.946;20.140;2023-06-19T13:58:38;43.10;49.20
21445;DHT22;10883;51.946;20.140;2023-06-19T14:01:04;43.50;50.10
21445;DHT22;10883;51.946;20.140;2023-06-19T14:03:29;44.90;48.60
21445;DHT22;10883;51.946;20.140;2023-06-19T14:05:55;45.30;46.50
21445;DHT22;10883;51.946;20.140;2023-06-19T14:08:21;45.70;48.20
21445;DHT22;10883;51.946;20.140;2023-06-19T14:10:47;46.20;45.90
21445;DHT22;10883;51.946;20.140;2023-06-19T14:13:12;45.90;46.10
21445;DHT22;10883;51.946;20.140;2023-06-19T14:15:38;44.90;47.10
21445;DHT22;10883;51.946;20.140;2023-06-19T14:18:04;44.60;48.60
21445;DHT22;10883;51.946;20.140;2023-06-19T14:20:31;44.90;48.90
21445;DHT22;10883;51.946;20.140;2023-06-19T14:22:56;45.70;46.50
21445;DHT22;10883;51.946;20.140;2023-06-19T14:25:22;45.60;45.20
21445;DHT22;10883;51.946;20.140;2023-06-19T14:27:48;44.80;45.00
21445;DHT22;10883;51.946;20.140;2023-06-19T14:30:14;43.80;47.60
21445;DHT22;10883;51.946;20.140;2023-06-19T14:32:40;42.70;46.60
21445;DHT22;10883;51.946;20.140;2023-06-19T14:35:06;42.10;47.20
21445;DHT22;10883;51.946;20.140;2023-06-19T14:37:32;40.30;50.20
21445;DHT22;10883;51.946;20.140;2023-06-19T14:39:58;37.50;50.90
21445;DHT22;10883;51.946;20.140;2023-06-19T14:42:23;35.40;53.60
21445;DHT22;10883;51.946;20.140;2023-06-19T14:44:49;34.30;55.50
21445;DHT22;10883;51.946;20.140;2023-06-19T14:47:15;33.80;56.60
21445;DHT22;10883;51.946;20.140;2023-06-19T14:49:41;33.60;57.50
21445;DHT22;10883;51.946;20.140;2023-06-19T14:52:07;33.40;57.10
21445;DHT22;10883;51.946;20.140;2023-06-19T14:54:33;33.10;58.30
21445;DHT22;10883;51.946;20.140;2023-06-19T14:56:58;32.80;58.40
21445;DHT22;10883;51.946;20.140;2023-06-19T14:59:24;32.70;60.00
21445;DHT22;10883;51.946;20.140;2023-06-19T15:01:51;33.00;59.30
21445;DHT22;10883;51.946;20.140;2023-06-19T15:04:16;33.00;58.80
21445;DHT22;10883;51.946;20.140;2023-06-19T15:06:42;32.60;62.20
21445;DHT22;10883;51.946;20.140;2023-06-19T15:09:08;32.50;60.90
21445;DHT22;10883;51.946;20.140;2023-06-19T15:11:34;32.60;61.80
21445;DHT22;10883;51.946;20.140;2023-06-19T15:14:00;32.40;59.40
21445;DHT22;10883;51.946;20.140;2023-06-19T15:16:26;32.20;62.30
21445;DHT22;10883;51.946;20.140;2023-06-19T15:18:52;32.30;62.10
21445;DHT22;10883;51.946;20.140;2023-06-19T15:21:18;32.20;62.80